createdAt,value
2022-10-07T00:00:01.759Z,15.80
2022-10-07T00:02:31.242Z,11.77
2022-10-07T00:04:58.555Z,14.85
2022-10-07T00:07:25.624Z,13.38
2022-10-07T00:09:52.594Z,18.42
2022-10-07T00:12:19.863Z,17.83
2022-10-07T00:14:46.874Z,13.25
2022-10-07T00:17:13.930Z,14.43
2022-10-07T00:19:41.179Z,11.48
2022-10-07T00:22:08.147Z,13.90
2022-10-07T00:24:35.180Z,12.55
2022-10-07T00:27:02.509Z,11.07
2022-10-07T00:29:29.528Z,13.95
2022-10-07T00:31:57.441Z,12.37
2022-10-07T00:34:25.107Z,12.52
2022-10-07T00:36:52.096Z,12.07
2022-10-07T00:39:19.459Z,17.83
2022-10-07T00:41:52.498Z,17.87
2022-10-07T00:44:38.005Z,14.93
2022-10-07T00:47:11.677Z,11.75
2022-10-07T00:49:44.963Z,10.95
2022-10-07T00:52:13.558Z,13.68
2022-10-07T00:54:40.824Z,15.45
2022-10-07T00:57:08.216Z,17.37
2022-10-07T00:59:37.024Z,12.60
2022-10-07T01:02:04.356Z,15.32
2022-10-07T01:04:31.439Z,13.93
2022-10-07T01:06:58.761Z,11.95
2022-10-07T01:09:25.774Z,14.68
2022-10-07T01:12:11.983Z,15.02
2022-10-07T01:15:08.542Z,13.07
2022-10-07T01:17:50.985Z,16.25
2022-10-07T01:20:53.420Z,15.82
2022-10-07T01:23:40.606Z,11.90
2022-10-07T01:26:46.077Z,15.13
2022-10-07T01:29:37.119Z,13.93
2022-10-07T01:32:19.618Z,17.98
2022-10-07T01:34:46.915Z,12.20
2022-10-07T01:37:16.511Z,17.45
2022-10-07T01:40:09.259Z,17.10
2022-10-07T01:42:36.918Z,12.75
2022-10-07T01:45:04.383Z,14.70
2022-10-07T01:47:31.949Z,12.88
2022-10-07T01:49:59.257Z,16.10
2022-10-07T01:52:42.403Z,19.02
2022-10-07T01:55:51.864Z,14.68
2022-10-07T01:58:41.187Z,19.20
2022-10-07T02:01:27.342Z,17.40
2022-10-07T02:04:25.501Z,16.37
2022-10-07T02:07:01.701Z,16.83
2022-10-07T02:09:30.823Z,16.52
2022-10-07T02:12:20.846Z,19.40
2022-10-07T02:15:08.366Z,16.23
2022-10-07T02:17:37.488Z,17.90
2022-10-07T02:20:06.214Z,18.85
2022-10-07T02:22:33.591Z,16.50
2022-10-07T02:25:00.685Z,21.83
2022-10-07T02:27:32.989Z,20.67
2022-10-07T02:30:04.842Z,16.20
2022-10-07T02:32:34.243Z,25.08
2022-10-07T02:35:07.305Z,19.83
2022-10-07T02:37:36.330Z,17.40
2022-10-07T02:40:09.636Z,17.52
2022-10-07T02:42:55.570Z,17.77
2022-10-07T02:45:36.753Z,19.67
2022-10-07T02:48:15.157Z,19.42
2022-10-07T02:50:44.183Z,20.35
2022-10-07T02:53:13.709Z,16.80
2022-10-07T02:55:43.462Z,16.95
2022-10-07T02:58:11.849Z,16.48
2022-10-07T03:00:42.651Z,19.12
2022-10-07T03:03:10.689Z,17.98
2022-10-07T03:05:38.290Z,20.58
2022-10-07T03:08:08.901Z,20.45
2022-10-07T03:10:37.054Z,22.92
2022-10-07T03:13:06.029Z,18.05
2022-10-07T03:15:41.895Z,18.77
2022-10-07T03:18:26.299Z,21.08
2022-10-07T03:20:55.811Z,16.45
2022-10-07T03:23:24.601Z,16.17
2022-10-07T03:25:53.550Z,15.90
2022-10-07T03:28:22.566Z,16.48
2022-10-07T03:30:50.295Z,19.12
2022-10-07T03:33:18.859Z,14.23
2022-10-07T03:35:46.285Z,16.73
2022-10-07T03:38:13.322Z,15.23
2022-10-07T03:40:40.549Z,16.70
2022-10-07T03:43:09.369Z,13.98
2022-10-07T03:45:43.639Z,16.05
2022-10-07T03:48:11.101Z,16.27
2022-10-07T03:50:38.184Z,17.30
2022-10-07T03:53:05.368Z,15.70
2022-10-07T03:55:32.919Z,14.55
2022-10-07T03:58:00.170Z,14.35
2022-10-07T04:00:27.794Z,18.27
2022-10-07T04:02:55.627Z,17.00
2022-10-07T04:05:22.937Z,15.75
2022-10-07T04:07:50.922Z,19.17
2022-10-07T04:10:21.499Z,17.98
2022-10-07T04:12:48.925Z,15.65
2022-10-07T04:15:16.066Z,16.50
2022-10-07T04:17:45.177Z,15.80
2022-10-07T04:20:14.980Z,14.05
2022-10-07T04:22:42.691Z,14.95
2022-10-07T04:25:31.034Z,13.98
2022-10-07T04:28:00.095Z,15.10
2022-10-07T04:30:29.486Z,15.15
2022-10-07T04:32:56.501Z,16.02
2022-10-07T04:35:24.454Z,17.75
2022-10-07T04:37:53.565Z,15.85
2022-10-07T04:40:22.012Z,15.70
2022-10-07T04:43:07.893Z,19.70
2022-10-07T04:45:36.498Z,14.43
2022-10-07T04:48:06.073Z,15.82
2022-10-07T04:50:34.126Z,14.40
2022-10-07T04:53:02.172Z,13.35
2022-10-07T04:55:29.958Z,17.58
2022-10-07T04:57:57.008Z,21.08
2022-10-07T05:00:25.715Z,16.30
2022-10-07T05:02:52.757Z,15.85
2022-10-07T05:05:20.692Z,16.27
2022-10-07T05:07:52.137Z,14.57
2022-10-07T05:10:20.174Z,17.45
2022-10-07T05:12:50.437Z,17.60
2022-10-07T05:15:19.705Z,15.13
2022-10-07T05:17:47.209Z,21.90
2022-10-07T05:20:15.468Z,18.65
2022-10-07T05:22:42.719Z,20.55
2022-10-07T05:25:10.842Z,25.90
2022-10-07T05:27:40.417Z,19.37
2022-10-07T05:30:09.114Z,15.80
2022-10-07T05:32:36.406Z,15.70
2022-10-07T05:35:04.303Z,18.45
2022-10-07T05:37:32.412Z,19.37
2022-10-07T05:39:59.599Z,16.12
2022-10-07T05:42:27.584Z,16.95
2022-10-07T05:44:54.777Z,17.70
2022-10-07T05:47:22.366Z,14.87
2022-10-07T05:49:49.921Z,17.87
2022-10-07T05:52:18.950Z,17.70
2022-10-07T05:54:46.753Z,15.68
2022-10-07T05:57:14.243Z,21.48
2022-10-07T05:59:42.621Z,20.85
2022-10-07T06:02:15.059Z,17.95
2022-10-07T06:04:45.944Z,30.37
2022-10-07T06:08:24.919Z,21.25
2022-10-07T06:11:11.885Z,21.23
2022-10-07T06:13:39.608Z,24.10
2022-10-07T06:16:08.592Z,20.20
2022-10-07T06:18:36.661Z,22.45
2022-10-07T06:21:05.119Z,17.83
2022-10-07T06:23:33.320Z,18.62
2022-10-07T06:26:02.797Z,23.58
2022-10-07T06:28:37.989Z,17.10
2022-10-07T06:31:11.044Z,12.15
2022-10-07T06:33:38.841Z,17.98
2022-10-07T06:36:08.366Z,12.50
2022-10-07T06:38:35.536Z,18.00
2022-10-07T06:41:04.683Z,14.45
2022-10-07T06:43:33.812Z,16.02
2022-10-07T06:46:03.738Z,12.52
2022-10-07T06:48:33.051Z,16.90
2022-10-07T06:51:04.679Z,11.25
2022-10-07T06:53:32.781Z,16.52
2022-10-07T06:56:04.212Z,17.37
2022-10-07T06:58:32.879Z,16.95
2022-10-07T07:01:00.796Z,14.70
2022-10-07T07:03:29.027Z,15.90
2022-10-07T07:05:57.201Z,17.80
2022-10-07T07:08:29.057Z,14.40
2022-10-07T07:10:56.599Z,16.17
2022-10-07T07:13:24.700Z,18.55
2022-10-07T07:15:56.475Z,14.60
2022-10-07T07:18:25.386Z,12.67
2022-10-07T07:20:53.447Z,16.45
2022-10-07T07:23:20.920Z,14.95
2022-10-07T07:25:48.219Z,16.45
2022-10-07T07:28:16.430Z,15.00
2022-10-07T07:30:43.610Z,12.70
2022-10-07T07:33:11.565Z,15.98
2022-10-07T07:35:41.436Z,18.02
2022-10-07T07:38:09.331Z,15.88
2022-10-07T07:40:38.104Z,13.40
2022-10-07T07:43:06.103Z,15.25
2022-10-07T07:45:36.727Z,14.50
2022-10-07T07:48:04.990Z,18.98
2022-10-07T07:50:33.046Z,14.68
2022-10-07T07:53:04.402Z,14.85
2022-10-07T07:55:33.762Z,12.37
2022-10-07T07:58:00.821Z,14.90
2022-10-07T08:00:28.202Z,14.87
2022-10-07T08:02:56.573Z,17.55
2022-10-07T08:05:24.402Z,13.52
2022-10-07T08:07:52.360Z,12.57
2022-10-07T08:10:19.931Z,11.20
2022-10-07T08:12:47.460Z,27.13
2022-10-07T08:15:15.173Z,11.18
2022-10-07T08:17:43.579Z,16.73
2022-10-07T08:20:11.201Z,12.27
2022-10-07T08:22:38.705Z,14.23
2022-10-07T08:25:06.574Z,13.57
2022-10-07T08:27:34.338Z,9.70
2022-10-07T08:30:02.352Z,13.50
2022-10-07T08:32:31.088Z,15.20
2022-10-07T08:34:58.066Z,14.60
2022-10-07T08:37:25.206Z,17.35
2022-10-07T08:39:52.479Z,14.65
2022-10-07T08:42:30.497Z,12.30
2022-10-07T08:44:57.816Z,10.68
2022-10-07T08:47:36.749Z,14.30
2022-10-07T08:50:20.338Z,14.90
2022-10-07T08:52:59.965Z,16.40
2022-10-07T08:55:43.819Z,14.48
2022-10-07T08:58:19.874Z,12.27
2022-10-07T09:00:54.076Z,14.45
2022-10-07T09:04:03.224Z,18.02
2022-10-07T09:06:42.535Z,13.88
2022-10-07T09:09:25.158Z,13.02
2022-10-07T09:11:52.936Z,12.98
2022-10-07T09:14:38.569Z,12.55
2022-10-07T09:17:15.897Z,13.32
2022-10-07T09:19:46.266Z,11.50
2022-10-07T09:22:37.532Z,13.80
2022-10-07T09:25:13.727Z,13.52
2022-10-07T09:27:41.012Z,13.80
2022-10-07T09:30:12.882Z,12.93
2022-10-07T09:32:43.938Z,15.32
2022-10-07T09:35:16.004Z,10.02
2022-10-07T09:38:12.640Z,10.38
2022-10-07T09:41:02.379Z,16.27
2022-10-07T09:43:31.448Z,12.25
2022-10-07T09:45:59.550Z,14.05
2022-10-07T09:48:33.769Z,11.98
2022-10-07T09:51:18.679Z,14.20
2022-10-07T09:54:03.015Z,15.05
2022-10-07T09:56:41.199Z,12.35
2022-10-07T09:59:31.823Z,12.93
2022-10-07T10:02:23.001Z,16.30
2022-10-07T10:04:57.432Z,16.73
2022-10-07T10:07:33.026Z,9.48
2022-10-07T10:10:14.175Z,16.00
2022-10-07T10:12:50.007Z,10.75
2022-10-07T10:15:39.486Z,12.55
2022-10-07T10:18:39.849Z,12.75
2022-10-07T10:21:42.393Z,10.65
2022-10-07T10:24:14.443Z,11.32
2022-10-07T10:27:05.738Z,13.05
2022-10-07T10:29:46.746Z,8.75
2022-10-07T10:32:48.717Z,14.73
2022-10-07T10:35:21.942Z,12.30
2022-10-07T10:37:51.996Z,10.90
2022-10-07T10:40:40.620Z,11.40
2022-10-07T10:43:07.943Z,10.57
2022-10-07T10:45:44.044Z,11.27
2022-10-07T10:48:30.998Z,13.62
2022-10-07T10:51:21.291Z,15.45
2022-10-07T10:53:54.750Z,10.60
2022-10-07T10:56:49.316Z,10.20
2022-10-07T10:59:27.204Z,9.35
2022-10-07T11:02:38.849Z,9.55
2022-10-07T11:05:13.509Z,11.70
2022-10-07T11:07:43.584Z,9.80
2022-10-07T11:10:30.667Z,10.05
2022-10-07T11:13:19.330Z,9.93
2022-10-07T11:15:58.333Z,12.68
2022-10-07T11:18:34.962Z,9.75
2022-10-07T11:21:04.469Z,7.07
2022-10-07T11:23:41.843Z,7.50
2022-10-07T11:26:20.779Z,8.07
2022-10-07T11:28:50.051Z,6.03
2022-10-07T11:31:40.167Z,8.40
2022-10-07T11:34:14.079Z,7.82
2022-10-07T11:36:47.278Z,6.55
2022-10-07T11:39:14.336Z,7.07
2022-10-07T11:41:50.180Z,14.10
2022-10-07T11:44:22.327Z,11.23
2022-10-07T11:46:50.810Z,5.85
2022-10-07T11:49:25.355Z,10.38
2022-10-07T11:52:06.657Z,9.93
2022-10-07T11:54:53.652Z,19.40
2022-10-07T11:57:24.169Z,7.03
2022-10-07T11:59:58.131Z,17.77
2022-10-07T12:02:28.418Z,7.47
2022-10-07T12:05:00.319Z,10.52
2022-10-07T12:07:38.156Z,8.48
2022-10-07T12:10:22.022Z,10.80
2022-10-07T12:12:53.839Z,7.97
2022-10-07T12:15:44.058Z,6.00
2022-10-07T12:18:12.358Z,7.35
2022-10-07T12:20:50.528Z,10.23
2022-10-07T12:23:18.556Z,7.22
2022-10-07T12:25:51.148Z,9.35
2022-10-07T12:28:37.048Z,8.40
2022-10-07T12:31:05.430Z,6.80
2022-10-07T12:33:36.379Z,8.40
2022-10-07T12:36:18.632Z,10.00
2022-10-07T12:39:09.685Z,12.90
2022-10-07T12:41:40.138Z,10.30
2022-10-07T12:44:08.426Z,6.22
2022-10-07T12:46:38.210Z,5.93
2022-10-07T12:49:14.092Z,9.93
2022-10-07T12:51:41.673Z,7.72
2022-10-07T12:54:36.852Z,6.78
2022-10-07T12:57:11.486Z,10.82
2022-10-07T13:00:10.579Z,11.60
2022-10-07T13:03:15.440Z,6.95
2022-10-07T13:05:51.563Z,6.47
2022-10-07T13:08:55.775Z,15.00
2022-10-07T13:11:48.085Z,12.45
2022-10-07T13:14:21.114Z,8.95
2022-10-07T13:16:56.220Z,9.77
2022-10-07T13:19:47.272Z,8.35
2022-10-07T13:22:16.199Z,7.07
2022-10-07T13:27:19.926Z,8.25
2022-10-07T13:29:47.802Z,15.40
2022-10-07T13:32:16.733Z,10.48
2022-10-07T13:34:46.236Z,9.18
2022-10-07T13:37:31.447Z,9.88
2022-10-07T13:40:30.535Z,5.70
2022-10-07T13:43:07.355Z,13.88
2022-10-07T13:45:43.655Z,11.43
2022-10-07T13:48:20.146Z,7.93
2022-10-07T13:50:50.586Z,13.30
2022-10-07T13:53:21.887Z,13.02
2022-10-07T13:55:49.078Z,23.33
2022-10-07T13:58:16.605Z,9.75
2022-10-07T14:00:47.921Z,7.05
2022-10-07T14:03:16.818Z,10.63
2022-10-07T14:05:52.151Z,12.77
2022-10-07T14:08:24.799Z,12.35
2022-10-07T14:10:55.979Z,9.73
2022-10-07T14:13:23.783Z,13.82
2022-10-07T14:15:54.671Z,6.47
2022-10-07T14:18:21.948Z,14.60
2022-10-07T14:20:50.789Z,4.12
2022-10-07T14:23:22.139Z,16.83
2022-10-07T14:25:53.181Z,8.48
2022-10-07T14:28:31.269Z,5.10
2022-10-07T14:31:23.320Z,11.95
2022-10-07T14:34:15.374Z,10.60
2022-10-07T14:37:11.394Z,10.20
2022-10-07T14:39:49.046Z,6.97
2022-10-07T14:42:21.967Z,8.98
2022-10-07T14:44:49.505Z,9.02
2022-10-07T14:47:24.238Z,8.00
2022-10-07T14:49:54.991Z,13.75
2022-10-07T14:52:28.779Z,8.60
2022-10-07T14:55:00.686Z,15.07
2022-10-07T14:57:28.071Z,7.12
2022-10-07T14:59:55.315Z,11.55
2022-10-07T15:02:22.661Z,9.75
2022-10-07T15:04:50.078Z,4.95
2022-10-07T15:07:17.578Z,10.57
2022-10-07T15:09:45.951Z,5.70
2022-10-07T15:12:15.125Z,8.65
2022-10-07T15:14:42.531Z,8.88
2022-10-07T15:17:12.990Z,7.75
2022-10-07T15:19:40.774Z,9.32
2022-10-07T15:22:07.812Z,10.00
2022-10-07T15:24:34.973Z,9.02
2022-10-07T15:27:02.499Z,8.02
2022-10-07T15:29:29.503Z,12.18
2022-10-07T15:31:56.481Z,8.35
2022-10-07T15:34:23.809Z,11.80
2022-10-07T15:36:50.793Z,10.10
2022-10-07T15:39:17.764Z,9.50
2022-10-07T15:41:45.061Z,18.58
2022-10-07T15:44:16.154Z,12.40
2022-10-07T15:46:47.542Z,11.60
2022-10-07T15:49:17.002Z,7.82
2022-10-07T15:51:46.134Z,6.20
2022-10-07T15:54:13.302Z,8.30
2022-10-07T15:56:40.876Z,8.13
2022-10-07T15:59:07.872Z,14.75
2022-10-07T16:01:35.220Z,12.10
2022-10-07T16:04:03.632Z,14.00
2022-10-07T16:06:33.094Z,15.30
2022-10-07T16:09:00.770Z,11.27
2022-10-07T16:11:29.736Z,17.33
2022-10-07T16:13:59.221Z,14.00
2022-10-07T16:16:27.336Z,14.13
2022-10-07T16:18:58.575Z,13.13
2022-10-07T16:21:30.242Z,12.63
2022-10-07T16:24:10.111Z,11.80
2022-10-07T16:26:37.559Z,22.85
2022-10-07T16:29:26.549Z,16.05
2022-10-07T16:31:58.260Z,13.90
2022-10-07T16:34:27.082Z,14.00
2022-10-07T16:36:55.198Z,12.88
2022-10-07T16:39:22.657Z,12.52
2022-10-07T16:41:51.827Z,9.25
2022-10-07T16:44:19.516Z,12.45
2022-10-07T16:46:46.946Z,10.82
2022-10-07T16:49:17.992Z,10.45
2022-10-07T16:51:46.443Z,15.77
2022-10-07T16:54:16.025Z,14.85
2022-10-07T16:56:49.074Z,12.55
2022-10-07T16:59:22.464Z,20.80
2022-10-07T17:01:52.173Z,12.93
2022-10-07T17:04:22.039Z,15.13
2022-10-07T17:06:49.205Z,12.50
2022-10-07T17:09:18.249Z,13.30
2022-10-07T17:11:45.480Z,11.55
2022-10-07T17:14:16.332Z,35.80
2022-10-07T17:16:45.987Z,17.73
2022-10-07T17:19:24.055Z,16.85
2022-10-07T17:21:52.686Z,16.75
2022-10-07T17:24:21.863Z,16.65
2022-10-07T17:26:49.531Z,18.00
2022-10-07T17:29:18.761Z,16.02
2022-10-07T17:31:50.977Z,14.77
2022-10-07T17:34:20.044Z,14.63
2022-10-07T17:36:48.023Z,22.60
2022-10-07T17:39:15.419Z,19.25
2022-10-07T17:41:42.763Z,17.37
2022-10-07T17:44:11.503Z,22.20
2022-10-07T17:46:39.691Z,19.60
2022-10-07T17:49:09.602Z,22.65
2022-10-07T17:51:37.469Z,13.05
2022-10-07T17:54:05.874Z,13.65
2022-10-07T17:56:37.126Z,16.50
2022-10-07T17:59:05.499Z,19.50
2022-10-07T18:01:34.313Z,25.52
2022-10-07T18:04:07.269Z,17.75
2022-10-07T18:06:36.101Z,28.30
2022-10-07T18:09:12.949Z,25.27
2022-10-07T18:11:58.537Z,27.70
2022-10-07T18:14:44.453Z,27.45
2022-10-07T18:17:11.502Z,24.37
2022-10-07T18:19:41.970Z,20.73
2022-10-07T18:22:08.976Z,23.27
2022-10-07T18:24:36.021Z,22.13
2022-10-07T18:27:03.526Z,20.37
2022-10-07T18:29:33.147Z,16.23
2022-10-07T18:32:00.765Z,21.77
2022-10-07T18:34:28.233Z,19.23
2022-10-07T18:36:56.847Z,17.08
2022-10-07T18:39:28.110Z,15.50
2022-10-07T18:41:56.211Z,20.50
2022-10-07T18:44:23.240Z,15.27
2022-10-07T18:46:50.432Z,14.07
2022-10-07T18:49:17.716Z,17.52
2022-10-07T18:51:46.921Z,14.32
2022-10-07T18:54:13.997Z,16.33
2022-10-07T18:56:41.861Z,17.70
2022-10-07T18:59:13.024Z,18.08
2022-10-07T19:01:40.529Z,16.37
2022-10-07T19:04:09.078Z,17.58
2022-10-07T19:06:38.634Z,17.10
2022-10-07T19:09:07.892Z,18.30
2022-10-07T19:11:35.539Z,14.80
2022-10-07T19:14:02.595Z,19.70
2022-10-07T19:16:34.561Z,19.50
2022-10-07T19:19:06.660Z,16.25
2022-10-07T19:21:34.389Z,17.42
2022-10-07T19:24:02.771Z,14.73
2022-10-07T19:26:34.031Z,15.35
2022-10-07T19:29:02.142Z,14.40
2022-10-07T19:31:32.024Z,14.73
2022-10-07T19:34:07.695Z,17.55
2022-10-07T19:36:36.787Z,13.10
2022-10-07T19:39:05.104Z,16.52
2022-10-07T19:41:33.784Z,16.42
2022-10-07T19:44:01.437Z,17.98
2022-10-07T19:46:30.507Z,18.48
2022-10-07T19:48:58.899Z,14.02
2022-10-07T19:51:27.868Z,17.80
2022-10-07T19:53:57.321Z,15.93
2022-10-07T19:56:35.601Z,19.73
2022-10-07T19:59:08.149Z,16.48
2022-10-07T20:01:37.726Z,16.87
2022-10-07T20:04:14.150Z,18.15
2022-10-07T20:06:42.104Z,17.70
2022-10-07T20:09:14.749Z,17.98
2022-10-07T20:11:41.877Z,19.15
2022-10-07T20:14:10.051Z,17.52
2022-10-07T20:16:38.308Z,15.95
2022-10-07T20:19:08.279Z,23.95
2022-10-07T20:21:37.271Z,20.85
2022-10-07T20:24:05.791Z,17.73
2022-10-07T20:26:37.771Z,18.70
2022-10-07T20:29:07.227Z,18.83
2022-10-07T20:31:38.568Z,17.42
2022-10-07T20:34:08.592Z,18.23
2022-10-07T20:36:37.718Z,19.87
2022-10-07T20:39:25.958Z,17.33
2022-10-07T20:42:12.348Z,18.33
2022-10-07T20:44:39.490Z,18.45
2022-10-07T20:47:08.483Z,21.45
2022-10-07T20:49:37.443Z,17.40
2022-10-07T20:52:07.023Z,16.25
2022-10-07T20:54:34.357Z,16.08
2022-10-07T20:57:01.384Z,16.45
2022-10-07T20:59:30.169Z,20.37
2022-10-07T21:01:58.056Z,17.10
2022-10-07T21:04:27.095Z,23.70
2022-10-07T21:06:57.457Z,23.98
2022-10-07T21:09:25.864Z,17.58
2022-10-07T21:11:53.882Z,17.10
2022-10-07T21:14:21.377Z,19.98
2022-10-07T21:16:48.832Z,15.93
2022-10-07T21:19:17.140Z,21.42
2022-10-07T21:21:44.267Z,15.85
2022-10-07T21:24:11.676Z,16.23
2022-10-07T21:26:38.710Z,18.48
2022-10-07T21:29:08.272Z,19.65
2022-10-07T21:31:36.020Z,19.40
2022-10-07T21:34:10.752Z,22.13
2022-10-07T21:36:40.622Z,19.87
2022-10-07T21:39:07.727Z,23.58
2022-10-07T21:41:35.708Z,19.95
2022-10-07T21:44:04.767Z,22.00
2022-10-07T21:46:34.201Z,21.02
2022-10-07T21:49:01.243Z,16.60
2022-10-07T21:51:29.659Z,22.95
2022-10-07T21:54:00.132Z,20.30
2022-10-07T21:56:28.319Z,19.42
2022-10-07T21:58:57.196Z,19.60
2022-10-07T22:01:25.267Z,21.17
2022-10-07T22:04:00.909Z,23.50
2022-10-07T22:06:48.233Z,18.00
2022-10-07T22:09:16.413Z,17.08
2022-10-07T22:11:43.942Z,18.15
2022-10-07T22:14:12.866Z,19.08
2022-10-07T22:16:40.865Z,23.45
2022-10-07T22:19:08.082Z,17.42
2022-10-07T22:21:39.832Z,19.17
2022-10-07T22:24:08.661Z,20.95
2022-10-07T22:26:39.472Z,22.70
2022-10-07T22:29:09.452Z,20.95
2022-10-07T22:31:37.325Z,21.02
2022-10-07T22:34:05.484Z,20.10
2022-10-07T22:36:33.399Z,21.37
2022-10-07T22:39:00.387Z,22.13
2022-10-07T22:41:27.974Z,27.52
2022-10-07T22:43:55.398Z,22.55
2022-10-07T22:46:26.697Z,21.90
2022-10-07T22:48:56.349Z,21.60
2022-10-07T22:51:24.992Z,22.10
2022-10-07T22:53:55.406Z,25.60
2022-10-07T22:56:23.644Z,23.67
2022-10-07T22:58:54.093Z,23.52
2022-10-07T23:01:22.103Z,22.70
2022-10-07T23:03:49.488Z,23.38
2022-10-07T23:06:18.734Z,26.08
2022-10-07T23:08:46.927Z,26.35
2022-10-07T23:11:16.913Z,26.50
2022-10-07T23:13:45.703Z,25.83
2022-10-07T23:16:15.704Z,25.33
2022-10-07T23:18:44.853Z,26.58
2022-10-07T23:21:14.857Z,24.25
2022-10-07T23:23:43.609Z,25.35
2022-10-07T23:26:13.368Z,25.37
2022-10-07T23:28:41.757Z,26.30
2022-10-07T23:31:11.412Z,28.25
2022-10-07T23:33:38.640Z,29.63
2022-10-07T23:36:09.034Z,28.33
2022-10-07T23:38:38.931Z,29.55
2022-10-07T23:41:07.108Z,26.02
2022-10-07T23:43:34.450Z,26.17
2022-10-07T23:46:01.940Z,25.92
2022-10-07T23:48:34.525Z,27.77
2022-10-07T23:51:03.556Z,21.05
2022-10-07T23:53:31.394Z,22.17
2022-10-07T23:55:58.425Z,25.05
2022-10-07T23:58:27.254Z,24.27
